sensor_id;sensor_type;location;lat;lon;timestamp;temperature;humidity
9265;DHT22;4669;49.594;10.958;2024-01-25T05:26:34;8.10;99.90
9265;DHT22;4669;49.594;10.958;2024-01-25T05:31:36;8.10;99.90
9265;DHT22;4669;49.594;10.958;2024-01-25T05:36:38;8.10;99.90
9265;DHT22;4669;49.594;10.958;2024-01-25T05:41:42;8.10;99.90
9265;DHT22;4669;49.594;10.958;2024-01-25T05:46:45;8.00;99.90
9265;DHT22;4669;49.594;10.958;2024-01-25T05:51:47;8.10;99.90
9265;DHT22;4669;49.594;10.958;2024-01-25T05:56:51;8.10;99.90
9265;DHT22;4669;49.594;10.958;2024-01-25T06:01:53;8.00;99.90
9265;DHT22;4669;49.594;10.958;2024-01-25T06:06:55;8.00;99.90
9265;DHT22;4669;49.594;10.958;2024-01-25T06:11:58;7.90;99.90
9265;DHT22;4669;49.594;10.958;2024-01-25T06:17:00;8.00;99.90
9265;DHT22;4669;49.594;10.958;2024-01-25T06:22:02;8.00;99.90
9265;DHT22;4669;49.594;10.958;2024-01-25T06:27:05;8.00;99.90
9265;DHT22;4669;49.594;10.958;2024-01-25T06:32:07;8.00;99.90
9265;DHT22;4669;49.594;10.958;2024-01-25T06:37:09;7.90;99.90
9265;DHT22;4669;49.594;10.958;2024-01-25T06:42:13;7.80;99.90
9265;DHT22;4669;49.594;10.958;2024-01-25T06:47:16;7.70;99.90
9265;DHT22;4669;49.594;10.958;2024-01-25T06:52:18;7.60;99.90
9265;DHT22;4669;49.594;10.958;2024-01-25T06:57:23;7.50;99.90
9265;DHT22;4669;49.594;10.958;2024-01-25T07:02:25;7.50;99.90
9265;DHT22;4669;49.594;10.958;2024-01-25T07:07:27;7.50;99.90
9265;DHT22;4669;49.594;10.958;2024-01-25T07:12:30;7.40;99.90
9265;DHT22;4669;49.594;10.958;2024-01-25T07:17:32;7.40;99.90
9265;DHT22;4669;49.594;10.958;2024-01-25T07:22:34;7.40;99.90
9265;DHT22;4669;49.594;10.958;2024-01-25T07:27:37;7.40;99.90
9265;DHT22;4669;49.594;10.958;2024-01-25T07:32:39;7.40;99.90
9265;DHT22;4669;49.594;10.958;2024-01-25T07:37:43;7.40;99.90
9265;DHT22;4669;49.594;10.958;2024-01-25T07:42:47;7.30;99.90
9265;DHT22;4669;49.594;10.958;2024-01-25T07:47:49;7.30;99.90
9265;DHT22;4669;49.594;10.958;2024-01-25T07:52:51;7.20;99.90
9265;DHT22;4669;49.594;10.958;2024-01-25T07:57:55;7.20;99.90
9265;DHT22;4669;49.594;10.958;2024-01-25T08:02:57;7.10;99.90
9265;DHT22;4669;49.594;10.958;2024-01-25T08:07:58;7.20;99.90
9265;DHT22;4669;49.594;10.958;2024-01-25T08:13:02;7.20;99.90
9265;DHT22;4669;49.594;10.958;2024-01-25T08:18:04;7.20;99.90
9265;DHT22;4669;49.594;10.958;2024-01-25T08:23:06;7.30;99.90
9265;DHT22;4669;49.594;10.958;2024-01-25T08:28:11;7.30;99.90
9265;DHT22;4669;49.594;10.958;2024-01-25T08:33:13;7.40;99.90
9265;DHT22;4669;49.594;10.958;2024-01-25T08:38:15;7.30;99.90
9265;DHT22;4669;49.594;10.958;2024-01-25T08:43:18;7.40;99.90
9265;DHT22;4669;49.594;10.958;2024-01-25T08:48:20;7.50;99.90
9265;DHT22;4669;49.594;10.958;2024-01-25T08:53:22;7.50;99.90
9265;DHT22;4669;49.594;10.958;2024-01-25T08:58:29;7.50;99.90
9265;DHT22;4669;49.594;10.958;2024-01-25T09:03:31;7.60;99.90
9265;DHT22;4669;49.594;10.958;2024-01-25T09:08:33;7.60;99.90
9265;DHT22;4669;49.594;10.958;2024-01-25T09:13:36;7.70;99.90
9265;DHT22;4669;49.594;10.958;2024-01-25T09:18:40;7.70;99.90
9265;DHT22;4669;49.594;10.958;2024-01-25T09:23:42;7.80;99.90
9265;DHT22;4669;49.594;10.958;2024-01-25T09:28:46;7.70;99.90
9265;DHT22;4669;49.594;10.958;2024-01-25T09:33:48;7.80;99.90
9265;DHT22;4669;49.594;10.958;2024-01-25T09:38:51;7.80;99.90
9265;DHT22;4669;49.594;10.958;2024-01-25T09:43:55;7.90;99.90
9265;DHT22;4669;49.594;10.958;2024-01-25T09:48:57;8.00;99.90
9265;DHT22;4669;49.594;10.958;2024-01-25T09:53:59;8.00;99.90
9265;DHT22;4669;49.594;10.958;2024-01-25T09:59:03;8.20;99.90
9265;DHT22;4669;49.594;10.958;2024-01-25T10:04:07;8.20;99.90
9265;DHT22;4669;49.594;10.958;2024-01-25T10:09:09;8.20;99.90
9265;DHT22;4669;49.594;10.958;2024-01-25T10:14:16;8.20;99.90
9265;DHT22;4669;49.594;10.958;2024-01-25T10:19:20;8.30;99.90
9265;DHT22;4669;49.594;10.958;2024-01-25T10:24:22;8.30;99.90
9265;DHT22;4669;49.594;10.958;2024-01-25T10:29:27;8.30;99.90
9265;DHT22;4669;49.594;10.958;2024-01-25T10:34:30;8.40;99.90
9265;DHT22;4669;49.594;10.958;2024-01-25T10:39:33;8.40;99.90
9265;DHT22;4669;49.594;10.958;2024-01-25T10:44:36;8.50;99.90
9265;DHT22;4669;49.594;10.958;2024-01-25T10:49:38;8.60;99.90
9265;DHT22;4669;49.594;10.958;2024-01-25T10:54:42;8.60;99.90
9265;DHT22;4669;49.594;10.958;2024-01-25T10:59:46;8.70;99.90
9265;DHT22;4669;49.594;10.958;2024-01-25T11:04:53;8.70;99.90
9265;DHT22;4669;49.594;10.958;2024-01-25T11:09:55;8.70;99.90
9265;DHT22;4669;49.594;10.958;2024-01-25T11:15:06;8.80;99.90
9265;DHT22;4669;49.594;10.958;2024-01-25T11:20:13;8.80;99.90
9265;DHT22;4669;49.594;10.958;2024-01-25T11:25:19;8.90;99.90
9265;DHT22;4669;49.594;10.958;2024-01-25T11:30:23;8.80;99.90
9265;DHT22;4669;49.594;10.958;2024-01-25T11:35:25;8.90;99.90
9265;DHT22;4669;49.594;10.958;2024-01-25T11:40:27;8.90;99.90
9265;DHT22;4669;49.594;10.958;2024-01-25T11:45:32;8.90;99.90
9265;DHT22;4669;49.594;10.958;2024-01-25T11:50:35;8.90;99.90
9265;DHT22;4669;49.594;10.958;2024-01-25T11:55:36;8.90;99.90
9265;DHT22;4669;49.594;10.958;2024-01-25T12:00:40;8.90;99.90
9265;DHT22;4669;49.594;10.958;2024-01-25T12:05:42;8.80;99.90
9265;DHT22;4669;49.594;10.958;2024-01-25T12:10:44;8.80;99.90
9265;DHT22;4669;49.594;10.958;2024-01-25T12:15:48;8.80;99.90
9265;DHT22;4669;49.594;10.958;2024-01-25T12:20:50;8.90;99.90
9265;DHT22;4669;49.594;10.958;2024-01-25T12:25:52;8.90;99.90
9265;DHT22;4669;49.594;10.958;2024-01-25T12:30:56;8.80;99.90
9265;DHT22;4669;49.594;10.958;2024-01-25T12:35:58;8.80;99.90
9265;DHT22;4669;49.594;10.958;2024-01-25T12:41:01;8.90;99.90
9265;DHT22;4669;49.594;10.958;2024-01-25T12:46:04;8.90;99.90
9265;DHT22;4669;49.594;10.958;2024-01-25T12:51:07;8.90;99.90
9265;DHT22;4669;49.594;10.958;2024-01-25T12:56:09;8.90;99.90
9265;DHT22;4669;49.594;10.958;2024-01-25T13:01:12;9.00;99.90
9265;DHT22;4669;49.594;10.958;2024-01-25T13:06:14;9.00;99.90
9265;DHT22;4669;49.594;10.958;2024-01-25T13:11:16;9.00;99.90
9265;DHT22;4669;49.594;10.958;2024-01-25T13:16:19;8.90;99.90
9265;DHT22;4669;49.594;10.958;2024-01-25T13:21:21;8.80;99.90
9265;DHT22;4669;49.594;10.958;2024-01-25T13:26:23;8.80;99.90
9265;DHT22;4669;49.594;10.958;2024-01-25T13:31:27;8.70;99.90
9265;DHT22;4669;49.594;10.958;2024-01-25T13:36:29;8.70;99.90
9265;DHT22;4669;49.594;10.958;2024-01-25T13:41:31;8.80;99.90
9265;DHT22;4669;49.594;10.958;2024-01-25T13:46:34;8.90;99.90
9265;DHT22;4669;49.594;10.958;2024-01-25T13:51:36;8.90;99.90
9265;DHT22;4669;49.594;10.958;2024-01-25T13:56:38;8.80;99.90
9265;DHT22;4669;49.594;10.958;2024-01-25T14:01:42;8.90;99.90
9265;DHT22;4669;49.594;10.958;2024-01-25T14:06:44;8.80;99.90
9265;DHT22;4669;49.594;10.958;2024-01-25T14:11:46;8.80;99.90
9265;DHT22;4669;49.594;10.958;2024-01-25T14:16:49;8.80;99.90
9265;DHT22;4669;49.594;10.958;2024-01-25T14:21:51;8.80;99.90
9265;DHT22;4669;49.594;10.958;2024-01-25T14:26:53;8.80;99.90
9265;DHT22;4669;49.594;10.958;2024-01-25T14:31:56;8.80;99.90
9265;DHT22;4669;49.594;10.958;2024-01-25T14:36:58;8.70;99.90
9265;DHT22;4669;49.594;10.958;2024-01-25T14:42:00;8.70;99.90
9265;DHT22;4669;49.594;10.958;2024-01-25T14:47:04;8.70;99.90
9265;DHT22;4669;49.594;10.958;2024-01-25T14:52:06;8.60;99.90
9265;DHT22;4669;49.594;10.958;2024-01-25T14:57:08;8.60;99.90
9265;DHT22;4669;49.594;10.958;2024-01-25T15:02:12;8.50;99.90
9265;DHT22;4669;49.594;10.958;2024-01-25T15:07:14;8.50;99.90
9265;DHT22;4669;49.594;10.958;2024-01-25T15:12:17;8.40;99.90
9265;DHT22;4669;49.594;10.958;2024-01-25T15:17:22;8.40;99.90
9265;DHT22;4669;49.594;10.958;2024-01-25T15:22:24;8.20;99.90
9265;DHT22;4669;49.594;10.958;2024-01-25T15:27:26;8.20;99.90
9265;DHT22;4669;49.594;10.958;2024-01-25T15:32:30;8.10;99.90
9265;DHT22;4669;49.594;10.958;2024-01-25T15:37:32;8.10;99.90
9265;DHT22;4669;49.594;10.958;2024-01-25T15:42:34;8.10;99.90
9265;DHT22;4669;49.594;10.958;2024-01-25T15:47:37;8.00;99.90
9265;DHT22;4669;49.594;10.958;2024-01-25T15:52:39;8.00;99.90
9265;DHT22;4669;49.594;10.958;2024-01-25T15:57:42;7.90;99.90
9265;DHT22;4669;49.594;10.958;2024-01-25T16:02:45;7.90;99.90
9265;DHT22;4669;49.594;10.958;2024-01-25T16:07:47;7.80;99.90
9265;DHT22;4669;49.594;10.958;2024-01-25T16:12:49;7.70;99.90
9265;DHT22;4669;49.594;10.958;2024-01-25T16:17:53;7.70;99.90
9265;DHT22;4669;49.594;10.958;2024-01-25T16:22:55;7.70;99.90
9265;DHT22;4669;49.594;10.958;2024-01-25T16:27:57;7.70;99.90
9265;DHT22;4669;49.594;10.958;2024-01-25T16:33:00;7.60;99.90
9265;DHT22;4669;49.594;10.958;2024-01-25T16:38:03;7.60;99.90
9265;DHT22;4669;49.594;10.958;2024-01-25T16:43:05;7.60;99.90
9265;DHT22;4669;49.594;10.958;2024-01-25T16:48:09;7.60;99.90
9265;DHT22;4669;49.594;10.958;2024-01-25T16:53:11;7.50;99.90
9265;DHT22;4669;49.594;10.958;2024-01-25T16:58:13;7.50;99.90
9265;DHT22;4669;49.594;10.958;2024-01-25T17:03:17;7.40;99.90
9265;DHT22;4669;49.594;10.958;2024-01-25T17:08:19;7.40;99.90
9265;DHT22;4669;49.594;10.958;2024-01-25T17:13:21;7.40;99.90
9265;DHT22;4669;49.594;10.958;2024-01-25T17:18:24;7.30;99.90
9265;DHT22;4669;49.594;10.958;2024-01-25T17:23:26;7.20;99.90
9265;DHT22;4669;49.594;10.958;2024-01-25T17:28:28;7.30;99.90
9265;DHT22;4669;49.594;10.958;2024-01-25T17:33:32;7.20;99.90
9265;DHT22;4669;49.594;10.958;2024-01-25T17:38:34;7.20;99.90
9265;DHT22;4669;49.594;10.958;2024-01-25T17:43:38;7.30;99.90
9265;DHT22;4669;49.594;10.958;2024-01-25T17:48:41;7.30;99.90
9265;DHT22;4669;49.594;10.958;2024-01-25T17:53:44;7.30;99.90
9265;DHT22;4669;49.594;10.958;2024-01-25T17:58:46;7.30;99.90
9265;DHT22;4669;49.594;10.958;2024-01-25T18:03:50;7.30;99.90
9265;DHT22;4669;49.594;10.958;2024-01-25T18:08:51;7.20;99.90
9265;DHT22;4669;49.594;10.958;2024-01-25T18:13:53;7.10;99.90
9265;DHT22;4669;49.594;10.958;2024-01-25T18:18:58;7.10;99.90
9265;DHT22;4669;49.594;10.958;2024-01-25T18:24:00;7.00;99.90
9265;DHT22;4669;49.594;10.958;2024-01-25T18:29:04;7.00;99.90
9265;DHT22;4669;49.594;10.958;2024-01-25T18:34:07;7.00;99.90
9265;DHT22;4669;49.594;10.958;2024-01-25T18:39:09;6.90;99.90
9265;DHT22;4669;49.594;10.958;2024-01-25T18:44:12;6.80;99.90
9265;DHT22;4669;49.594;10.958;2024-01-25T18:49:15;6.80;99.90
9265;DHT22;4669;49.594;10.958;2024-01-25T18:54:18;6.80;99.90
9265;DHT22;4669;49.594;10.958;2024-01-25T18:59:20;6.80;99.90
9265;DHT22;4669;49.594;10.958;2024-01-25T19:04:27;6.70;99.90
9265;DHT22;4669;49.594;10.958;2024-01-25T19:09:29;6.70;99.90
9265;DHT22;4669;49.594;10.958;2024-01-25T19:14:32;6.70;99.90
9265;DHT22;4669;49.594;10.958;2024-01-25T19:19:36;6.70;99.90
9265;DHT22;4669;49.594;10.958;2024-01-25T19:24:38;6.70;99.90
9265;DHT22;4669;49.594;10.958;2024-01-25T19:29:40;6.70;99.90
9265;DHT22;4669;49.594;10.958;2024-01-25T19:34:44;6.70;99.90
9265;DHT22;4669;49.594;10.958;2024-01-25T19:39:46;6.70;99.90
9265;DHT22;4669;49.594;10.958;2024-01-25T19:44:48;6.70;99.90
9265;DHT22;4669;49.594;10.958;2024-01-25T19:49:51;6.70;99.90
9265;DHT22;4669;49.594;10.958;2024-01-25T19:54:53;6.70;99.90
9265;DHT22;4669;49.594;10.958;2024-01-25T19:59:56;6.60;99.90
9265;DHT22;4669;49.594;10.958;2024-01-25T20:05:00;6.60;99.90
9265;DHT22;4669;49.594;10.958;2024-01-25T20:10:02;6.60;99.90
9265;DHT22;4669;49.594;10.958;2024-01-25T20:15:06;6.60;99.90
9265;DHT22;4669;49.594;10.958;2024-01-25T20:20:11;6.60;99.90
9265;DHT22;4669;49.594;10.958;2024-01-25T20:25:15;6.60;99.90
9265;DHT22;4669;49.594;10.958;2024-01-25T20:30:17;6.50;99.90
9265;DHT22;4669;49.594;10.958;2024-01-25T20:35:20;6.50;99.90
9265;DHT22;4669;49.594;10.958;2024-01-25T20:40:22;6.50;99.90
9265;DHT22;4669;49.594;10.958;2024-01-25T20:45:24;6.60;99.90
9265;DHT22;4669;49.594;10.958;2024-01-25T20:50:28;6.50;99.90
9265;DHT22;4669;49.594;10.958;2024-01-25T20:55:30;6.50;99.90
9265;DHT22;4669;49.594;10.958;2024-01-25T21:00:33;6.50;99.90
9265;DHT22;4669;49.594;10.958;2024-01-25T21:05:37;6.50;99.90
9265;DHT22;4669;49.594;10.958;2024-01-25T21:10:40;6.50;99.90
9265;DHT22;4669;49.594;10.958;2024-01-25T21:15:42;6.50;99.90
9265;DHT22;4669;49.594;10.958;2024-01-25T21:20:45;6.50;99.90
9265;DHT22;4669;49.594;10.958;2024-01-25T21:25:47;6.50;99.90
9265;DHT22;4669;49.594;10.958;2024-01-25T21:30:49;6.40;99.90
9265;DHT22;4669;49.594;10.958;2024-01-25T21:35:53;6.40;99.90
9265;DHT22;4669;49.594;10.958;2024-01-25T21:40:55;6.40;99.90
9265;DHT22;4669;49.594;10.958;2024-01-25T21:45:58;6.50;99.90
9265;DHT22;4669;49.594;10.958;2024-01-25T21:51:01;6.40;99.90
9265;DHT22;4669;49.594;10.958;2024-01-25T21:56:04;6.40;99.90
9265;DHT22;4669;49.594;10.958;2024-01-25T22:01:06;6.40;99.90
9265;DHT22;4669;49.594;10.958;2024-01-25T22:06:10;6.30;99.90
9265;DHT22;4669;49.594;10.958;2024-01-25T22:11:12;6.20;99.90
9265;DHT22;4669;49.594;10.958;2024-01-25T22:16:14;6.20;99.90
9265;DHT22;4669;49.594;10.958;2024-01-25T22:21:17;6.30;99.90
9265;DHT22;4669;49.594;10.958;2024-01-25T22:26:19;6.30;99.90
9265;DHT22;4669;49.594;10.958;2024-01-25T22:31:21;6.30;99.90
9265;DHT22;4669;49.594;10.958;2024-01-25T22:36:24;6.30;99.90
9265;DHT22;4669;49.594;10.958;2024-01-25T22:41:26;6.20;99.90
9265;DHT22;4669;49.594;10.958;2024-01-25T22:46:28;6.20;99.90
9265;DHT22;4669;49.594;10.958;2024-01-25T22:51:32;6.20;99.90
9265;DHT22;4669;49.594;10.958;2024-01-25T22:56:34;6.30;99.90
